Time;durP1;ratioP1;P1;durP2;ratioP2;P2;SDS_P1;SDS_P2;PMS_P1;PMS_P2;Temp;Humidity;BMP_temperature;BMP_pressure;BME280_temperature;BME280_humidity;BME280_pressure;Samples;Min_cycle;Max_cycle;Signal;HPM_P1;HPM_P2
2020/12/30 00:00:34;;;;;;;11.82;7.90;;;6.60;82.70;;;;;;5041561;28;20045;-75
2020/12/30 00:03:00;;;;;;;11.57;7.85;;;6.60;82.70;;;;;;5034304;28;20079;-75
2020/12/30 00:05:26;;;;;;;8.93;6.80;;;6.60;82.70;;;;;;5048804;28;20036;-75
2020/12/30 00:07:51;;;;;;;10.90;7.53;;;6.60;83.30;;;;;;5034949;28;20538;-75
2020/12/30 00:10:22;;;;;;;10.30;7.45;;;6.60;82.70;;;;;;5038273;28;20061;-76
2020/12/30 00:12:48;;;;;;;10.88;8.45;;;6.60;82.80;;;;;;5044363;28;20021;-76
2020/12/30 00:15:15;;;;;;;10.60;7.38;;;6.50;82.70;;;;;;5044783;28;20481;-76
2020/12/30 00:17:42;;;;;;;9.98;7.40;;;6.60;82.70;;;;;;5028528;28;20033;-79
2020/12/30 00:20:10;;;;;;;10.95;7.82;;;6.60;82.70;;;;;;5039664;28;20029;-76
2020/12/30 00:22:36;;;;;;;9.52;7.68;;;6.50;82.70;;;;;;5029427;28;20033;-76
2020/12/30 00:25:03;;;;;;;10.65;7.88;;;6.50;82.60;;;;;;5029584;28;20037;-76
2020/12/30 00:27:29;;;;;;;10.88;7.82;;;6.50;82.60;;;;;;5046059;28;20033;-76
2020/12/30 00:29:55;;;;;;;13.18;9.02;;;6.50;82.70;;;;;;5028486;28;20417;-75
2020/12/30 00:32:20;;;;;;;10.32;7.40;;;6.50;82.70;;;;;;5026431;28;20034;-75
2020/12/30 00:34:46;;;;;;;11.57;8.30;;;6.50;82.70;;;;;;5029025;28;20041;-75
2020/12/30 00:37:12;;;;;;;11.73;7.93;;;6.50;82.70;;;;;;5028248;28;20025;-75
2020/12/30 00:39:38;;;;;;;11.40;8.10;;;6.50;82.70;;;;;;5037357;28;20075;-76
2020/12/30 00:42:04;;;;;;;10.23;7.72;;;6.40;82.60;;;;;;5032646;28;20109;-75
2020/12/30 00:44:32;;;;;;;10.05;7.50;;;6.50;82.70;;;;;;5028823;28;20064;-75
2020/12/30 00:46:58;;;;;;;10.73;8.15;;;6.40;83.00;;;;;;5032968;28;20052;-75
2020/12/30 00:49:25;;;;;;;10.63;7.60;;;6.40;82.70;;;;;;5046273;28;20550;-75
2020/12/30 00:51:52;;;;;;;11.23;7.68;;;6.40;82.70;;;;;;5031252;28;20028;-76
2020/12/30 00:54:19;;;;;;;11.73;8.27;;;6.40;82.70;;;;;;5031445;28;20033;-75
2020/12/30 00:56:46;;;;;;;13.00;8.23;;;6.40;82.70;;;;;;5062921;28;20147;-78
2020/12/30 00:59:13;;;;;;;11.35;8.13;;;6.40;82.70;;;;;;5033509;28;20592;-76
2020/12/30 01:01:38;;;;;;;11.13;7.45;;;6.30;82.60;;;;;;5037454;28;20029;-76
2020/12/30 01:04:21;;;;;;;10.88;7.97;;;6.30;82.60;;;;;;5039937;28;20385;-76
2020/12/30 01:06:51;;;;;;;11.27;8.25;;;6.40;82.70;;;;;;5041099;28;20040;-75
2020/12/30 01:09:18;;;;;;;10.48;7.78;;;6.30;82.70;;;;;;5042378;28;20056;-75
2020/12/30 01:11:44;;;;;;;11.60;8.65;;;6.30;82.60;;;;;;5048424;28;20025;-76
2020/12/30 01:14:10;;;;;;;10.30;8.32;;;6.30;82.70;;;;;;5025335;28;20033;-76
2020/12/30 01:16:36;;;;;;;11.10;8.23;;;6.30;82.70;;;;;;5044045;28;20044;-76
2020/12/30 01:19:03;;;;;;;12.00;8.77;;;6.30;82.70;;;;;;5043475;28;20045;-75
2020/12/30 01:21:29;;;;;;;11.32;8.00;;;6.30;82.70;;;;;;5033524;28;20021;-76
2020/12/30 01:23:54;;;;;;;11.30;8.55;;;6.20;83.30;;;;;;5046354;28;20040;-75
2020/12/30 01:26:20;;;;;;;11.35;8.18;;;6.20;82.60;;;;;;5027094;28;20029;-75
2020/12/30 01:28:46;;;;;;;11.60;8.35;;;6.20;82.60;;;;;;5028781;28;20046;-75
2020/12/30 01:31:12;;;;;;;11.00;8.25;;;6.20;82.60;;;;;;5026620;28;20033;-75
2020/12/30 01:33:37;;;;;;;12.38;8.57;;;6.10;82.60;;;;;;4998408;28;20037;-75
2020/12/30 01:36:04;;;;;;;11.57;8.55;;;6.20;82.70;;;;;;5011631;28;20025;-76
2020/12/30 01:38:32;;;;;;;11.45;9.23;;;6.10;82.60;;;;;;5043567;28;20147;-75
2020/12/30 01:40:59;;;;;;;13.18;9.50;;;6.10;82.60;;;;;;5030887;28;20029;-75
2020/12/30 01:43:24;;;;;;;11.88;9.05;;;6.10;82.70;;;;;;5024954;28;20045;-75
2020/12/30 01:45:51;;;;;;;12.35;8.63;;;6.10;83.30;;;;;;5014193;28;20033;-75
2020/12/30 01:48:19;;;;;;;13.18;9.32;;;6.10;82.70;;;;;;5041268;28;20033;-75
2020/12/30 01:50:45;;;;;;;14.00;9.63;;;6.00;82.60;;;;;;5048165;28;20033;-75
2020/12/30 01:53:12;;;;;;;12.80;8.90;;;6.00;82.60;;;;;;5029744;28;20056;-75
2020/12/30 01:55:39;;;;;;;12.38;9.00;;;6.00;82.60;;;;;;5043234;28;20025;-75
2020/12/30 01:58:09;;;;;;;12.15;9.07;;;6.00;82.70;;;;;;5032914;28;20033;-75
2020/12/30 02:00:35;;;;;;;13.10;9.73;;;6.00;82.70;;;;;;5047786;28;20047;-75
2020/12/30 02:03:03;;;;;;;13.20;9.57;;;6.00;82.70;;;;;;5050016;28;20079;-75
2020/12/30 02:05:35;;;;;;;12.30;9.32;;;5.90;82.60;;;;;;5032613;28;20037;-75
2020/12/30 02:08:05;;;;;;;12.75;9.40;;;6.00;82.70;;;;;;5035178;28;20504;-76
2020/12/30 02:10:31;;;;;;;11.48;8.57;;;6.00;82.70;;;;;;5035167;28;20089;-75
2020/12/30 02:12:58;;;;;;;14.02;9.98;;;5.90;82.60;;;;;;5044165;28;20033;-75
2020/12/30 02:15:25;;;;;;;13.93;9.65;;;5.90;82.60;;;;;;5034192;28;20029;-75
2020/12/30 02:17:50;;;;;;;12.50;8.95;;;5.90;82.60;;;;;;5030383;28;20032;-75
2020/12/30 02:20:16;;;;;;;12.88;9.80;;;5.90;82.60;;;;;;5030868;28;20040;-75
2020/12/30 02:22:45;;;;;;;12.38;9.35;;;5.90;82.60;;;;;;5030213;28;20080;-76
2020/12/30 02:25:11;;;;;;;13.23;8.75;;;5.90;82.60;;;;;;5049138;28;20029;-75
2020/12/30 02:27:37;;;;;;;14.77;9.43;;;5.90;82.60;;;;;;5044757;28;20041;-75
2020/12/30 02:30:03;;;;;;;12.55;9.38;;;5.90;82.60;;;;;;5049035;28;20389;-76
2020/12/30 02:32:29;;;;;;;12.20;9.38;;;5.90;82.60;;;;;;5030359;28;20611;-75
2020/12/30 02:34:55;;;;;;;12.57;9.25;;;5.90;82.60;;;;;;5026773;28;20024;-75
2020/12/30 02:37:22;;;;;;;12.77;9.07;;;5.90;82.60;;;;;;5006380;28;20029;-75
2020/12/30 02:39:48;;;;;;;12.90;9.52;;;5.90;82.60;;;;;;5019176;28;20060;-75
2020/12/30 02:42:14;;;;;;;13.07;8.68;;;5.80;82.60;;;;;;5046062;28;20035;-75
2020/12/30 02:44:40;;;;;;;13.65;9.80;;;5.80;82.60;;;;;;5048938;28;20044;-76
2020/12/30 02:47:06;;;;;;;14.75;10.07;;;5.80;82.60;;;;;;5031948;28;20444;-75
2020/12/30 02:49:31;;;;;;;11.52;8.57;;;5.80;83.20;;;;;;5025241;28;20032;-75
2020/12/30 02:51:57;;;;;;;13.70;9.60;;;5.80;82.60;;;;;;5030999;28;20029;-75
2020/12/30 02:54:23;;;;;;;12.40;9.07;;;5.80;82.60;;;;;;5041005;28;20056;-75
2020/12/30 02:56:48;;;;;;;12.43;8.73;;;5.80;82.60;;;;;;5049072;28;20688;-75
2020/12/30 02:59:14;;;;;;;11.88;8.70;;;5.80;82.60;;;;;;5032859;28;20043;-76
2020/12/30 03:01:43;;;;;;;11.88;8.48;;;5.80;82.60;;;;;;5023859;28;20044;-75
2020/12/30 03:04:09;;;;;;;12.52;9.40;;;5.80;82.60;;;;;;5043928;28;20025;-75
2020/12/30 03:06:34;;;;;;;12.63;9.27;;;5.80;82.60;;;;;;5012238;28;20442;-76
2020/12/30 03:09:00;;;;;;;12.43;9.38;;;5.80;82.60;;;;;;5013347;28;20038;-76
2020/12/30 03:11:26;;;;;;;13.43;9.60;;;5.70;82.50;;;;;;5019335;28;20367;-75
2020/12/30 03:13:52;;;;;;;12.70;9.50;;;5.70;82.60;;;;;;5027508;28;20033;-75
2020/12/30 03:16:18;;;;;;;13.35;9.77;;;5.70;82.60;;;;;;5035626;28;20492;-77
2020/12/30 03:18:44;;;;;;;13.60;9.95;;;5.70;82.60;;;;;;5041646;28;20029;-76
2020/12/30 03:21:10;;;;;;;13.85;9.85;;;5.70;82.60;;;;;;5045367;28;20477;-75
2020/12/30 03:23:35;;;;;;;13.68;10.02;;;5.70;82.60;;;;;;5035188;28;20105;-76
2020/12/30 03:26:02;;;;;;;12.43;9.25;;;5.70;82.60;;;;;;5022675;28;20025;-77
2020/12/30 03:28:27;;;;;;;14.27;9.85;;;5.70;82.60;;;;;;5009742;28;20033;-75
2020/12/30 03:30:53;;;;;;;13.82;9.52;;;5.70;82.60;;;;;;5032271;28;20032;-76
2020/12/30 03:33:19;;;;;;;11.43;8.73;;;5.70;82.60;;;;;;5045263;28;20611;-76
2020/12/30 03:35:44;;;;;;;11.82;9.02;;;5.70;82.60;;;;;;5027468;28;20037;-75
2020/12/30 03:38:10;;;;;;;12.85;9.07;;;5.70;82.60;;;;;;5021214;28;20448;-76
2020/12/30 03:40:36;;;;;;;12.48;9.25;;;5.60;82.50;;;;;;5032531;28;20033;-76
2020/12/30 03:43:01;;;;;;;12.77;8.98;;;5.60;82.50;;;;;;5036252;28;20457;-75
2020/12/30 03:45:27;;;;;;;11.68;9.02;;;5.60;82.60;;;;;;5025575;28;20034;-76
2020/12/30 03:47:53;;;;;;;12.45;9.07;;;5.60;82.60;;;;;;5031421;28;20036;-75
2020/12/30 03:50:18;;;;;;;11.60;8.82;;;5.60;82.60;;;;;;5028056;28;20049;-75
2020/12/30 03:52:44;;;;;;;13.30;9.13;;;5.60;82.60;;;;;;5022371;28;20057;-76
2020/12/30 03:55:10;;;;;;;12.45;8.70;;;5.60;82.60;;;;;;5015115;28;20047;-75
2020/12/30 03:57:36;;;;;;;12.45;8.80;;;5.60;82.60;;;;;;5031037;28;20111;-76
2020/12/30 04:00:02;;;;;;;13.65;10.02;;;5.60;82.60;;;;;;5029502;28;20240;-77
2020/12/30 04:02:28;;;;;;;12.20;9.10;;;5.60;82.60;;;;;;5046539;28;20549;-75
2020/12/30 04:04:53;;;;;;;13.23;9.20;;;5.60;82.60;;;;;;5032085;28;20117;-75
2020/12/30 04:07:19;;;;;;;13.48;10.10;;;5.60;82.60;;;;;;5027087;28;20029;-75
2020/12/30 04:09:45;;;;;;;11.40;8.77;;;5.60;82.60;;;;;;5031962;28;20047;-74
2020/12/30 04:12:10;;;;;;;13.48;9.13;;;5.50;82.50;;;;;;5042971;28;20025;-75
2020/12/30 04:14:36;;;;;;;13.75;9.27;;;5.50;82.50;;;;;;5036301;28;20033;-76
2020/12/30 04:17:02;;;;;;;12.43;9.30;;;5.50;82.50;;;;;;5031908;28;20028;-76
2020/12/30 04:19:28;;;;;;;12.98;9.07;;;5.50;82.50;;;;;;5046748;28;20033;-75
2020/12/30 04:21:53;;;;;;;12.10;9.32;;;5.50;82.50;;;;;;5029081;28;20029;-76
2020/12/30 04:24:19;;;;;;;11.85;8.23;;;5.50;82.50;;;;;;5021279;28;20122;-76
2020/12/30 04:26:45;;;;;;;12.48;8.88;;;5.50;82.60;;;;;;5018598;28;20357;-76
2020/12/30 04:29:10;;;;;;;13.40;8.90;;;5.50;83.20;;;;;;5033247;28;20057;-75
2020/12/30 04:31:37;;;;;;;14.70;10.27;;;5.50;82.60;;;;;;5048071;28;20386;-76
2020/12/30 04:34:06;;;;;;;12.90;9.05;;;5.50;82.50;;;;;;5033243;28;20044;-75
2020/12/30 04:36:32;;;;;;;13.25;9.57;;;5.50;82.60;;;;;;4993569;28;20120;-75
2020/12/30 04:38:58;;;;;;;14.65;9.68;;;5.50;82.60;;;;;;5042716;28;20436;-75
2020/12/30 04:41:31;;;;;;;12.73;9.43;;;5.50;82.50;;;;;;5030865;28;20052;-77
2020/12/30 04:44:02;;;;;;;11.02;8.27;;;5.50;82.60;;;;;;5034717;28;20050;-75
2020/12/30 04:46:29;;;;;;;12.63;9.13;;;5.50;82.60;;;;;;5046351;28;20063;-75
2020/12/30 04:48:57;;;;;;;13.63;9.48;;;5.50;82.50;;;;;;5048471;28;20021;-75
2020/12/30 04:51:25;;;;;;;11.48;8.93;;;5.50;82.60;;;;;;5049798;28;20074;-75
2020/12/30 04:53:55;;;;;;;12.50;8.77;;;5.50;82.60;;;;;;5051431;28;20032;-75
2020/12/30 04:56:49;;;;;;;14.00;9.65;;;5.40;82.50;;;;;;5048820;28;20033;-75
2020/12/30 04:59:18;;;;;;;14.40;9.43;;;5.40;82.60;;;;;;5040960;28;20657;-75
2020/12/30 05:01:52;;;;;;;13.93;10.10;;;5.40;82.50;;;;;;5041335;28;20029;-75
2020/12/30 05:04:21;;;;;;;14.25;9.48;;;5.40;82.50;;;;;;5043614;28;20509;-74
2020/12/30 05:06:50;;;;;;;13.93;9.88;;;5.40;82.50;;;;;;5049978;28;20066;-75
2020/12/30 05:09:19;;;;;;;11.60;8.85;;;5.40;82.50;;;;;;5049647;28;20376;-75
2020/12/30 05:11:45;;;;;;;11.82;8.50;;;5.40;82.60;;;;;;5041117;28;20065;-75
2020/12/30 05:14:10;;;;;;;12.40;9.00;;;5.40;82.50;;;;;;5040667;28;20056;-75
2020/12/30 05:16:36;;;;;;;11.57;8.43;;;5.40;82.50;;;;;;5036695;28;20037;-75
2020/12/30 05:19:05;;;;;;;13.60;8.95;;;5.40;82.50;;;;;;5051248;28;20033;-75
2020/12/30 05:21:31;;;;;;;11.38;8.23;;;5.40;83.10;;;;;;5050742;28;20029;-75
2020/12/30 05:23:57;;;;;;;12.93;9.52;;;5.40;82.50;;;;;;5027576;28;20033;-75
2020/12/30 05:26:24;;;;;;;14.65;10.15;;;5.40;82.60;;;;;;5047700;28;20458;-75
2020/12/30 05:28:52;;;;;;;12.48;9.25;;;5.40;83.20;;;;;;5044108;28;20044;-75
2020/12/30 05:31:18;;;;;;;13.23;9.38;;;5.40;82.60;;;;;;5035555;28;20026;-75
2020/12/30 05:33:44;;;;;;;12.57;9.52;;;5.40;82.50;;;;;;5047997;28;20094;-75
2020/12/30 05:36:10;;;;;;;12.48;9.55;;;5.40;83.20;;;;;;5022456;28;20804;-78
2020/12/30 05:38:36;;;;;;;14.40;9.90;;;5.40;82.60;;;;;;5042965;28;20578;-75
2020/12/30 05:41:02;;;;;;;12.45;9.30;;;5.40;82.60;;;;;;5050368;28;20036;-75
2020/12/30 05:43:28;;;;;;;13.73;9.18;;;5.40;82.60;;;;;;5045517;28;20091;-75
2020/12/30 05:45:55;;;;;;;11.23;8.68;;;5.40;82.60;;;;;;5014967;28;20056;-75
2020/12/30 05:48:22;;;;;;;13.43;9.52;;;5.30;82.50;;;;;;5050278;28;20048;-75
2020/12/30 05:50:55;;;;;;;13.73;10.25;;;5.40;82.60;;;;;;5034132;28;20029;-75
2020/12/30 05:53:22;;;;;;;12.60;8.98;;;5.40;82.60;;;;;;5030936;28;20053;-74
2020/12/30 05:56:06;;;;;;;12.40;9.10;;;5.40;82.60;;;;;;5028434;28;20056;-75
2020/12/30 05:58:40;;;;;;;11.15;8.98;;;5.40;82.60;;;;;;5037917;28;20040;-75
2020/12/30 06:01:24;;;;;;;11.90;8.90;;;5.40;82.50;;;;;;5048889;28;20025;-75
2020/12/30 06:03:49;;;;;;;11.68;8.63;;;5.40;82.60;;;;;;5048512;28;20434;-75
2020/12/30 06:06:20;;;;;;;12.85;9.27;;;5.40;82.50;;;;;;5011366;28;20053;-75
2020/12/30 06:08:48;;;;;;;13.02;9.30;;;5.40;82.50;;;;;;5038641;28;20025;-75
2020/12/30 06:11:23;;;;;;;12.15;9.13;;;5.40;82.50;;;;;;5048869;28;20025;-78
2020/12/30 06:13:51;;;;;;;12.48;8.60;;;5.40;82.50;;;;;;5045980;28;20628;-75
2020/12/30 06:16:23;;;;;;;11.63;9.55;;;5.40;82.50;;;;;;5038117;28;20021;-75
2020/12/30 06:18:51;;;;;;;13.30;9.48;;;5.40;82.50;;;;;;5043332;28;20123;-75
2020/12/30 06:21:19;;;;;;;11.80;8.60;;;5.40;82.50;;;;;;5037924;28;20034;-76
2020/12/30 06:23:54;;;;;;;12.35;9.02;;;5.40;82.50;;;;;;5044382;28;20167;-75
2020/12/30 06:26:24;;;;;;;;;;;5.40;82.60;;;;;;5049832;28;20124;-75
2020/12/30 06:28:54;;;;;;;12.45;8.32;;;5.40;82.40;;;;;;5040672;28;19908;-76
2020/12/30 06:31:20;;;;;;;12.82;8.55;;;5.40;82.30;;;;;;5046952;28;20028;-75
2020/12/30 06:33:47;;;;;;;13.20;9.60;;;5.40;82.30;;;;;;5036442;28;20032;-75
2020/12/30 06:36:23;;;;;;;11.73;8.73;;;5.40;82.40;;;;;;5046137;28;20103;-75
2020/12/30 06:38:49;;;;;;;11.27;8.55;;;5.40;82.50;;;;;;5029291;28;20075;-75
2020/12/30 06:41:15;;;;;;;13.20;9.02;;;5.40;82.50;;;;;;5048881;28;20425;-75
2020/12/30 06:43:48;;;;;;;11.38;8.88;;;5.40;82.50;;;;;;5036953;28;20045;-75
2020/12/30 06:46:38;;;;;;;12.38;9.00;;;5.40;82.60;;;;;;5038337;28;20037;-75
2020/12/30 06:49:05;;;;;;;12.00;9.15;;;5.40;82.50;;;;;;5028207;28;20037;-75
2020/12/30 06:51:39;;;;;;;13.20;9.02;;;5.40;82.50;;;;;;5050546;28;20025;-75
2020/12/30 06:54:05;;;;;;;11.17;8.43;;;5.40;82.60;;;;;;5021673;28;20055;-75
2020/12/30 06:56:39;;;;;;;10.52;8.15;;;5.40;82.50;;;;;;5042621;28;20482;-75
2020/12/30 06:59:06;;;;;;;12.10;8.52;;;5.40;82.60;;;;;;5042212;28;20470;-75
2020/12/30 07:02:02;;;;;;;12.60;9.10;;;5.40;82.60;;;;;;5031502;28;20116;-75
2020/12/30 07:04:30;;;;;;;11.98;8.18;;;5.40;82.70;;;;;;5033908;28;20037;-75
2020/12/30 07:06:56;;;;;;;12.70;8.77;;;5.40;82.50;;;;;;5042416;28;20052;-76
2020/12/30 07:09:36;;;;;;;12.88;8.98;;;5.40;82.50;;;;;;5038340;28;20126;-75
2020/12/30 07:12:08;;;;;;;10.30;7.97;;;5.40;82.70;;;;;;5023971;28;20060;-75
2020/12/30 07:14:36;;;;;;;11.82;8.63;;;5.40;82.50;;;;;;5036298;28;20067;-75
2020/12/30 07:17:04;;;;;;;11.65;8.57;;;5.40;82.50;;;;;;5032250;28;20039;-75
2020/12/30 07:19:33;;;;;;;10.98;8.52;;;5.40;82.60;;;;;;5032000;28;20693;-75
2020/12/30 07:22:10;;;;;;;10.80;8.82;;;5.40;82.50;;;;;;5045730;28;20022;-76
2020/12/30 07:24:46;;;;;;;12.80;7.97;;;5.40;82.60;;;;;;5042018;28;20025;-76
2020/12/30 07:27:16;;;;;;;11.73;8.25;;;5.40;82.50;;;;;;5039176;28;20075;-75
2020/12/30 07:29:46;;;;;;;11.30;8.05;;;5.40;82.50;;;;;;5024006;28;20021;-75
2020/12/30 07:32:13;;;;;;;10.02;7.45;;;5.40;82.60;;;;;;5038550;28;20082;-75
2020/12/30 07:34:41;;;;;;;11.40;8.45;;;5.40;82.60;;;;;;5043495;28;20057;-75
2020/12/30 07:37:07;;;;;;;10.20;8.23;;;5.40;82.60;;;;;;5035281;28;20036;-75
2020/12/30 07:39:38;;;;;;;12.85;8.88;;;5.40;82.50;;;;;;5039863;28;20064;-74
2020/12/30 07:42:05;;;;;;;10.35;7.47;;;5.40;82.60;;;;;;5045411;28;20025;-75
2020/12/30 07:44:31;;;;;;;11.95;8.82;;;5.40;82.60;;;;;;5041607;28;20379;-75
2020/12/30 07:47:02;;;;;;;11.15;7.95;;;5.40;82.60;;;;;;5040971;28;20040;-75
2020/12/30 07:49:28;;;;;;;10.52;8.07;;;5.50;82.60;;;;;;5039590;28;20065;-75
2020/12/30 07:51:56;;;;;;;12.20;7.95;;;5.50;82.60;;;;;;5013946;28;20029;-75
2020/12/30 07:54:23;;;;;;;13.13;8.45;;;5.40;82.60;;;;;;5020423;28;20109;-76
2020/12/30 07:56:50;;;;;;;12.00;8.68;;;5.40;82.60;;;;;;5035656;28;20018;-76
2020/12/30 07:59:24;;;;;;;10.40;8.35;;;5.50;82.60;;;;;;5045794;28;20033;-75
2020/12/30 08:01:56;;;;;;;11.10;7.38;;;5.40;82.60;;;;;;5039711;28;20504;-75
2020/12/30 08:04:22;;;;;;;11.35;8.18;;;5.50;82.60;;;;;;5041176;28;20469;-75
2020/12/30 08:06:48;;;;;;;10.10;7.78;;;5.50;82.60;;;;;;5038088;28;20032;-76
2020/12/30 08:09:15;;;;;;;9.63;7.55;;;5.50;82.60;;;;;;5042836;28;20370;-75
2020/12/30 08:11:52;;;;;;;11.00;7.70;;;5.50;82.60;;;;;;5024716;28;20109;-76
2020/12/30 08:14:19;;;;;;;10.68;7.72;;;5.50;82.70;;;;;;5043188;28;20033;-76
2020/12/30 08:16:52;;;;;;;10.90;7.90;;;5.50;82.60;;;;;;5025350;28;20032;-75
2020/12/30 08:19:41;;;;;;;8.98;6.88;;;5.50;82.60;;;;;;5038816;28;20484;-76
2020/12/30 08:22:11;;;;;;;9.77;7.25;;;5.50;82.70;;;;;;5035623;28;20072;-76
2020/12/30 08:24:39;;;;;;;9.25;6.80;;;5.50;82.60;;;;;;5027430;28;20421;-76
2020/12/30 08:27:05;;;;;;;10.60;7.78;;;5.50;82.60;;;;;;5040176;28;20024;-75
2020/12/30 08:29:33;;;;;;;9.93;7.15;;;5.50;82.60;;;;;;5043592;28;20508;-76
2020/12/30 08:32:04;;;;;;;10.88;7.82;;;5.50;82.60;;;;;;5046745;28;20124;-75
2020/12/30 08:34:37;;;;;;;10.40;7.25;;;5.50;82.60;;;;;;5046828;28;20040;-76
2020/12/30 08:37:10;;;;;;;11.48;8.18;;;5.60;82.60;;;;;;5049114;28;20025;-76
2020/12/30 08:39:42;;;;;;;10.90;7.28;;;5.60;82.60;;;;;;5042818;28;20065;-75
2020/12/30 08:42:20;;;;;;;10.60;7.45;;;5.60;82.60;;;;;;5028832;28;20025;-76
2020/12/30 08:44:49;;;;;;;10.38;7.45;;;5.60;82.60;;;;;;5049033;28;20108;-75
2020/12/30 08:47:20;;;;;;;9.88;7.13;;;5.60;82.60;;;;;;5048108;28;20021;-76
2020/12/30 08:49:46;;;;;;;9.95;7.43;;;5.60;82.60;;;;;;5031824;28;20396;-76
2020/12/30 08:52:22;;;;;;;9.68;7.13;;;5.60;82.60;;;;;;5029070;28;20021;-75
2020/12/30 08:54:47;;;;;;;11.27;7.50;;;5.60;82.60;;;;;;5031298;28;20033;-76
2020/12/30 08:57:19;;;;;;;9.95;7.15;;;5.60;82.60;;;;;;5046472;28;20413;-75
2020/12/30 08:59:45;;;;;;;10.52;7.82;;;5.60;82.60;;;;;;5047860;28;20049;-76
2020/12/30 09:02:11;;;;;;;11.40;7.82;;;5.60;82.60;;;;;;5047427;28;20129;-76
2020/12/30 09:04:50;;;;;;;9.95;7.30;;;5.60;82.60;;;;;;5030834;28;20083;-77
2020/12/30 09:07:25;;;;;;;10.05;7.18;;;5.60;82.60;;;;;;5048260;28;20024;-76
2020/12/30 09:10:06;;;;;;;8.75;6.88;;;5.70;82.70;;;;;;5045233;28;20071;-76
2020/12/30 09:12:32;;;;;;;9.02;6.68;;;5.70;82.70;;;;;;5033882;28;20029;-76
2020/12/30 09:14:58;;;;;;;9.32;7.20;;;5.70;82.60;;;;;;5051797;28;20031;-77
2020/12/30 09:17:24;;;;;;;9.55;6.82;;;5.70;82.60;;;;;;5052464;28;20063;-77
2020/12/30 09:19:49;;;;;;;12.68;7.00;;;5.70;82.60;;;;;;5047892;28;20060;-77
2020/12/30 09:22:15;;;;;;;10.00;6.88;;;5.70;82.60;;;;;;5022625;28;20437;-77
2020/12/30 09:24:42;;;;;;;10.52;7.45;;;5.70;82.60;;;;;;5044231;28;20029;-77
2020/12/30 09:27:22;;;;;;;11.05;7.75;;;5.70;82.60;;;;;;5030002;28;20056;-77
2020/12/30 09:30:14;;;;;;;9.13;6.35;;;5.70;82.70;;;;;;5034598;28;20041;-76
2020/12/30 09:32:41;;;;;;;8.73;6.30;;;5.70;82.70;;;;;;5060966;28;20030;-78
2020/12/30 09:35:12;;;;;;;9.15;6.88;;;5.80;82.60;;;;;;5032108;28;20070;-78
2020/12/30 09:37:39;;;;;;;10.05;7.82;;;5.80;82.60;;;;;;5034081;28;20026;-77
2020/12/30 09:40:10;;;;;;;10.27;7.30;;;5.80;82.60;;;;;;5035652;28;20038;-76
2020/12/30 09:42:37;;;;;;;10.60;7.25;;;5.80;82.60;;;;;;5037821;28;20530;-77
2020/12/30 09:45:05;;;;;;;10.88;7.78;;;5.80;82.60;;;;;;5031093;28;20061;-79
2020/12/30 09:47:31;;;;;;;10.57;7.70;;;5.80;82.60;;;;;;5044287;28;20704;-77
2020/12/30 09:49:57;;;;;;;10.10;7.47;;;5.90;82.60;;;;;;5025838;28;20044;-77
2020/12/30 09:52:23;;;;;;;11.68;7.88;;;5.90;82.60;;;;;;5027735;28;20481;-75
2020/12/30 09:54:49;;;;;;;9.73;7.45;;;5.90;82.60;;;;;;5027675;28;20112;-77
2020/12/30 09:57:14;;;;;;;10.15;7.32;;;5.90;82.60;;;;;;5020106;28;20055;-77
2020/12/30 09:59:41;;;;;;;9.15;7.07;;;5.90;83.30;;;;;;5030920;28;20040;-77
2020/12/30 10:02:07;;;;;;;9.75;7.38;;;5.90;82.70;;;;;;5022980;28;20041;-78
2020/12/30 10:04:33;;;;;;;10.32;7.55;;;5.90;82.70;;;;;;5040165;28;20098;-81
2020/12/30 10:06:58;;;;;;;10.63;7.78;;;5.90;82.60;;;;;;5037784;28;20026;-77
2020/12/30 10:09:24;;;;;;;10.48;8.00;;;5.90;82.60;;;;;;5037109;28;20037;-77
2020/12/30 10:11:51;;;;;;;11.13;7.60;;;5.90;82.60;;;;;;5021580;28;20036;-77
2020/12/30 10:14:20;;;;;;;10.23;7.40;;;6.00;82.70;;;;;;5029782;28;20056;-78
2020/12/30 10:16:49;;;;;;;10.07;7.28;;;6.00;82.60;;;;;;5044305;28;20631;-78
2020/12/30 10:19:15;;;;;;;11.40;8.13;;;6.00;82.60;;;;;;5046590;28;20043;-77
2020/12/30 10:21:41;;;;;;;10.02;7.40;;;6.00;82.60;;;;;;5025080;28;20039;-77
2020/12/30 10:24:07;;;;;;;11.13;7.95;;;6.00;82.60;;;;;;5028788;28;20033;-77
2020/12/30 10:26:33;;;;;;;10.65;7.28;;;6.00;82.60;;;;;;5045006;28;20021;-77
2020/12/30 10:29:00;;;;;;;10.73;7.93;;;6.10;82.70;;;;;;5046856;28;20029;-77
2020/12/30 10:31:26;;;;;;;9.15;6.95;;;6.00;82.60;;;;;;5033776;28;20055;-76
2020/12/30 10:33:52;;;;;;;9.48;7.28;;;6.00;82.60;;;;;;5031026;28;20025;-76
2020/12/30 10:36:19;;;;;;;10.27;7.88;;;6.10;82.70;;;;;;5032888;28;20497;-77
2020/12/30 10:38:45;;;;;;;9.80;7.82;;;6.10;82.70;;;;;;5034720;28;20065;-78
2020/12/30 10:41:16;;;;;;;9.50;6.90;;;6.10;82.60;;;;;;5039023;28;20480;-77
2020/12/30 10:43:42;;;;;;;8.75;6.82;;;6.10;82.70;;;;;;5030461;28;20068;-76
2020/12/30 10:46:15;;;;;;;9.77;6.95;;;6.10;82.70;;;;;;5035137;28;20458;-77
2020/12/30 10:48:46;;;;;;;8.15;6.47;;;6.20;83.40;;;;;;5031855;28;20128;-77
2020/12/30 10:51:13;;;;;;;12.00;7.47;;;6.20;82.70;;;;;;5023959;28;20119;-77
2020/12/30 10:53:39;;;;;;;9.93;7.45;;;6.20;82.70;;;;;;5029588;28;20026;-77
2020/12/30 10:56:05;;;;;;;10.63;7.43;;;6.20;82.70;;;;;;5039866;28;20397;-76
2020/12/30 10:58:31;;;;;;;9.77;7.20;;;6.20;82.60;;;;;;5033656;28;20405;-76
2020/12/30 11:00:56;;;;;;;10.38;7.30;;;6.20;82.60;;;;;;5041764;28;20078;-76
2020/12/30 11:03:22;;;;;;;9.15;6.80;;;6.20;82.60;;;;;;5032010;28;20065;-77
2020/12/30 11:05:48;;;;;;;9.50;7.05;;;6.30;82.70;;;;;;5041405;28;20034;-78
2020/12/30 11:08:14;;;;;;;9.25;7.05;;;6.30;82.70;;;;;;5029833;28;20060;-76
2020/12/30 11:10:40;;;;;;;9.50;7.22;;;6.30;82.70;;;;;;5025011;28;20033;-77
2020/12/30 11:13:06;;;;;;;10.15;7.70;;;6.30;82.60;;;;;;5021037;28;20025;-77
2020/12/30 11:15:35;;;;;;;9.65;7.43;;;6.30;82.70;;;;;;5040512;28;20437;-77
2020/12/30 11:18:04;;;;;;;9.48;6.97;;;6.30;82.60;;;;;;5043115;28;20040;-76
2020/12/30 11:20:30;;;;;;;10.18;7.28;;;6.30;82.60;;;;;;5038446;28;20572;-85
2020/12/30 11:22:55;;;;;;;9.50;7.45;;;6.40;82.70;;;;;;5032428;28;20037;-77
2020/12/30 11:25:21;;;;;;;10.23;7.72;;;6.40;82.70;;;;;;5044041;28;20488;-76
2020/12/30 11:27:47;;;;;;;11.05;7.63;;;6.40;82.70;;;;;;5026605;28;20486;-80
2020/12/30 11:30:14;;;;;;;10.75;7.90;;;6.40;82.70;;;;;;5044425;28;20108;-77
2020/12/30 11:32:40;;;;;;;10.40;7.55;;;6.40;82.70;;;;;;5039734;28;20108;-77
2020/12/30 11:35:07;;;;;;;11.48;7.40;;;6.50;82.80;;;;;;5045175;28;20434;-77
2020/12/30 11:37:32;;;;;;;8.50;6.85;;;6.50;82.80;;;;;;5045730;28;20029;-76
2020/12/30 11:39:58;;;;;;;11.90;7.78;;;6.50;82.70;;;;;;5045113;28;20032;-75
2020/12/30 11:42:24;;;;;;;9.48;6.60;;;6.50;82.80;;;;;;5044706;28;20068;-82
2020/12/30 11:44:49;;;;;;;11.35;8.10;;;6.50;82.70;;;;;;5040943;28;20054;-80
2020/12/30 11:47:15;;;;;;;10.95;8.55;;;6.50;82.70;;;;;;5040876;28;20359;-75
2020/12/30 11:49:41;;;;;;;10.77;8.13;;;6.60;82.80;;;;;;5022972;28;20036;-77
2020/12/30 11:52:06;;;;;;;13.32;8.57;;;6.60;82.70;;;;;;5043824;28;20035;-74
2020/12/30 11:54:32;;;;;;;12.07;7.55;;;6.70;82.70;;;;;;5030251;28;20571;-77
2020/12/30 11:56:58;;;;;;;12.05;8.65;;;6.70;82.70;;;;;;5032038;28;20037;-75
2020/12/30 11:59:23;;;;;;;12.13;8.85;;;6.70;82.80;;;;;;5032518;28;20034;-75
2020/12/30 12:01:49;;;;;;;10.23;7.55;;;6.70;82.70;;;;;;5017389;28;20033;-77
2020/12/30 12:04:15;;;;;;;10.85;7.50;;;6.70;82.70;;;;;;5040564;28;20032;-76
2020/12/30 12:06:40;;;;;;;10.30;7.03;;;6.80;82.80;;;;;;5025637;28;20079;-75
2020/12/30 12:09:06;;;;;;;9.98;7.43;;;6.80;82.80;;;;;;5036235;28;20107;-77
2020/12/30 12:11:32;;;;;;;10.65;7.28;;;6.80;82.80;;;;;;5026474;28;20037;-77
2020/12/30 12:13:57;;;;;;;11.32;7.85;;;6.80;82.80;;;;;;5033608;28;20108;-77
2020/12/30 12:16:23;;;;;;;10.38;7.32;;;6.90;82.80;;;;;;5034542;28;20029;-78
2020/12/30 12:18:49;;;;;;;8.65;6.53;;;6.80;82.70;;;;;;5036221;28;20033;-77
2020/12/30 12:21:14;;;;;;;10.40;7.55;;;6.90;82.80;;;;;;5022628;28;20040;-78
2020/12/30 12:23:40;;;;;;;9.05;6.82;;;6.90;82.80;;;;;;5027265;28;20049;-77
2020/12/30 12:26:06;;;;;;;8.68;6.88;;;6.90;82.80;;;;;;5037128;28;20112;-76
2020/12/30 12:28:57;;;;;;;9.95;7.15;;;6.90;82.80;;;;;;5023656;28;20083;-77
2020/12/30 12:31:23;;;;;;;9.27;6.57;;;6.90;82.90;;;;;;5036373;28;20386;-76
2020/12/30 12:33:49;;;;;;;8.52;5.97;;;6.90;82.80;;;;;;5036874;28;20040;-77
2020/12/30 12:36:16;;;;;;;8.80;6.13;;;7.00;82.80;;;;;;5032541;28;20454;-77
2020/12/30 12:38:42;;;;;;;8.13;5.60;;;7.00;82.90;;;;;;5026914;28;20030;-77
2020/12/30 12:41:09;;;;;;;8.32;6.15;;;7.00;82.80;;;;;;5028478;28;20053;-78
2020/12/30 12:43:34;;;;;;;8.95;6.18;;;7.00;82.90;;;;;;5034017;28;20060;-78
2020/12/30 12:46:00;;;;;;;8.32;6.22;;;7.00;82.80;;;;;;5041180;28;20364;-79
2020/12/30 12:48:26;;;;;;;8.25;5.78;;;7.00;82.80;;;;;;5041308;28;20028;-78
2020/12/30 12:50:51;;;;;;;8.98;5.63;;;7.10;82.90;;;;;;5020217;28;20420;-79